METAR Data
IDs: Format: Raw Decoded Include TAF

Data at: 1418 UTC 11 Dec 2018

KALI 111353Z AUTO 00000KT 6SM BR CLR 05/04 A3041 RMK AO2 SLP296 T00500039
KALI 111253Z AUTO 00000KT 7SM CLR 03/02 A3039 RMK AO2 SLP292 T00330022
KALI 111153Z AUTO 30003KT 7SM CLR 03/02 A3039 RMK AO2 SLP289 7//// T00330022 10056 20033 58004
KALI 111053Z AUTO 28004KT 7SM CLR 04/03 A3039 RMK AO2 SLP291 T00390028
KALI 110953Z AUTO 28004KT 7SM CLR 04/03 A3039 RMK AO2 SLP291 T00390033
KALI 110853Z AUTO 26003KT 7SM CLR 04/03 A3040 RMK AO2 SLP293 T00390033 55005
KALI 110753Z AUTO 25003KT 7SM CLR 05/04 A3040 RMK AO2 SLP293 T00500039
KALI 110653Z AUTO 24003KT 10SM CLR 04/03 A3040 RMK AO2 SLP295 T00440033
KALI 110553Z AUTO 24005KT 10SM CLR 06/04 A3041 RMK AO2 SLP298 T00560044 10106 20039 401720022 58000
KALI 110453Z AUTO 00000KT 10SM CLR 06/04 A3042 RMK AO2 SLP299 T00610039
KALI 110353Z AUTO 12003KT 10SM CLR 06/05 A3042 RMK AO2 SLP299 T00610050
KALI 110253Z AUTO 15003KT 10SM CLR 06/04 A3041 RMK AO2 SLP298 T00610044 52013
KALI 110153Z AUTO 00000KT 10SM CLR 08/06 A3040 RMK AO2 SLP295 T00780061
KALI 110053Z AUTO 09004KT 10SM CLR 08/06 A3039 RMK AO2 SLP290 T00830056
KALI 102353Z AUTO 08005KT 10SM CLR 11/06 A3037 RMK AO2 SLP285 T01060061 10172 20106 53006
KALI 102253Z AUTO 06003KT 10SM CLR 14/04 A3036 RMK AO2 SLP280 T01440044
KALI 102153Z AUTO 05003KT 10SM CLR 17/04 A3035 RMK AO2 SLP277 T01670039
KALI 102053Z AUTO 36007KT 330V040 10SM CLR 17/04 A3036 RMK AO2 SLP278 T01670039 56024
KALI 101953Z AUTO VRB04KT 10SM CLR 16/04 A3036 RMK AO2 SLP281 T01560039
KALI 101853Z AUTO 31005KT 10SM CLR 14/04 A3040 RMK AO2 SLP293 T01440039
KALI 101753Z AUTO VRB04KT 10SM CLR 13/04 A3043 RMK AO2 SLP303 6//// T01330039 10133 20022 58010
KALI 101653Z AUTO VRB03KT 10SM CLR 12/04 A3046 RMK AO2 SLP313 T01170039
KALI 101553Z AUTO 36006KT 10SM CLR 10/04 A3047 RMK AO2 SLP317 T01000039
KALI 101453Z AUTO 32005KT 10SM CLR 08/04 A3046 RMK AO2 SLP313 6//// T00780039 51020
KALI 101353Z AUTO 31005KT 10SM CLR 04/03 A3044 RMK AO2 SLP308 T00390028
KALI 101253Z AUTO 32006KT 10SM CLR 03/02 A3042 RMK AO2 SLP301 T00280017 PNO $
KALI 101153Z AUTO 31006KT 10SM CLR 03/02 A3040 RMK AO2 SLP293 6//// 7//// T00280017 10061 20028 53002 PNO $
KALI 101053Z AUTO 29004KT 10SM CLR 03/02 A3038 RMK AO2 SLP286 T00330022 PNO $
KALI 100953Z AUTO 31005KT 10SM CLR 03/02 A3039 RMK AO2 SLP291 T00330022 PNO $
KALI 100853Z AUTO 34003KT 10SM CLR 04/02 A3039 RMK AO2 SLP291 6//// T00390022 52002 PNO $
KALI 100753Z AUTO 00000KT 10SM CLR 04/03 A3039 RMK AO2 SLP290 T00440033 PNO $
KALI 100653Z AUTO 01006KT 10SM CLR 06/04 A3039 RMK AO2 SLP289 T00560039 PNO $
KALI 100553Z AUTO 35004KT 10SM CLR 06/04 A3038 RMK AO2 SLP288 6//// T00560044 10106 20056 401560039 51014 PNO $
KALI 100453Z AUTO 02004KT 10SM CLR 07/05 A3038 RMK AO2 SLP286 T00670050 PNO $
KALI 100353Z AUTO 02005KT 10SM CLR 07/04 A3036 RMK AO2 SLP280 T00670044 PNO $
KALI 100253Z AUTO 00000KT 10SM CLR 07/04 A3034 RMK AO2 SLP274 6//// T00670039 52015 PNO $